sensor_id;sensor_type;location;lat;lon;timestamp;temperature;humidity
17080;DHT22;8655;57.106;-2.088;2022-12-29T00:01:26;16.60;48.40
17080;DHT22;8655;57.106;-2.088;2022-12-29T00:03:52;16.60;48.40
17080;DHT22;8655;57.106;-2.088;2022-12-29T00:06:18;16.60;48.40
17080;DHT22;8655;57.106;-2.088;2022-12-29T00:08:43;16.60;48.40
17080;DHT22;8655;57.106;-2.088;2022-12-29T00:11:15;16.60;48.40
17080;DHT22;8655;57.106;-2.088;2022-12-29T00:13:41;16.60;48.50
17080;DHT22;8655;57.106;-2.088;2022-12-29T00:16:26;16.60;48.50
17080;DHT22;8655;57.106;-2.088;2022-12-29T00:18:52;16.50;48.40
17080;DHT22;8655;57.106;-2.088;2022-12-29T00:21:19;16.50;48.40
17080;DHT22;8655;57.106;-2.088;2022-12-29T00:24:03;16.50;48.40
17080;DHT22;8655;57.106;-2.088;2022-12-29T00:29:48;16.50;48.40
17080;DHT22;8655;57.106;-2.088;2022-12-29T00:32:32;16.50;48.40
17080;DHT22;8655;57.106;-2.088;2022-12-29T00:35:33;16.50;48.40
17080;DHT22;8655;57.106;-2.088;2022-12-29T00:38:04;16.50;48.50
17080;DHT22;8655;57.106;-2.088;2022-12-29T00:40:49;16.50;48.50
17080;DHT22;8655;57.106;-2.088;2022-12-29T00:43:33;16.50;48.50
17080;DHT22;8655;57.106;-2.088;2022-12-29T00:46:17;16.40;48.30
17080;DHT22;8655;57.106;-2.088;2022-12-29T00:48:42;16.50;48.50
17080;DHT22;8655;57.106;-2.088;2022-12-29T00:51:27;16.40;48.40
17080;DHT22;8655;57.106;-2.088;2022-12-29T00:53:52;16.40;48.40
17080;DHT22;8655;57.106;-2.088;2022-12-29T00:56:18;16.40;48.40
17080;DHT22;8655;57.106;-2.088;2022-12-29T00:58:43;16.40;48.40
17080;DHT22;8655;57.106;-2.088;2022-12-29T01:01:09;16.40;48.40
17080;DHT22;8655;57.106;-2.088;2022-12-29T01:03:36;16.40;48.40
17080;DHT22;8655;57.106;-2.088;2022-12-29T01:06:04;16.40;48.40
17080;DHT22;8655;57.106;-2.088;2022-12-29T01:08:30;16.40;48.40
17080;DHT22;8655;57.106;-2.088;2022-12-29T01:11:06;16.40;48.40
17080;DHT22;8655;57.106;-2.088;2022-12-29T01:13:33;16.40;48.40
17080;DHT22;8655;57.106;-2.088;2022-12-29T01:15:59;16.40;48.40
17080;DHT22;8655;57.106;-2.088;2022-12-29T01:18:25;16.40;48.40
17080;DHT22;8655;57.106;-2.088;2022-12-29T01:21:01;16.40;48.40
17080;DHT22;8655;57.106;-2.088;2022-12-29T01:23:27;16.40;48.50
17080;DHT22;8655;57.106;-2.088;2022-12-29T01:25:53;16.40;48.40
17080;DHT22;8655;57.106;-2.088;2022-12-29T01:28:19;16.40;48.50
17080;DHT22;8655;57.106;-2.088;2022-12-29T01:30:44;16.40;48.50
17080;DHT22;8655;57.106;-2.088;2022-12-29T01:33:10;16.40;48.40
17080;DHT22;8655;57.106;-2.088;2022-12-29T01:35:35;16.40;48.50
17080;DHT22;8655;57.106;-2.088;2022-12-29T01:38:01;16.40;48.50
17080;DHT22;8655;57.106;-2.088;2022-12-29T01:40:27;16.40;48.50
17080;DHT22;8655;57.106;-2.088;2022-12-29T01:42:53;16.40;48.50
17080;DHT22;8655;57.106;-2.088;2022-12-29T01:45:19;16.30;48.40
17080;DHT22;8655;57.106;-2.088;2022-12-29T01:47:50;16.30;48.40
17080;DHT22;8655;57.106;-2.088;2022-12-29T01:50:27;16.40;48.50
17080;DHT22;8655;57.106;-2.088;2022-12-29T01:53:25;16.30;48.40
17080;DHT22;8655;57.106;-2.088;2022-12-29T01:55:56;16.30;48.40
17080;DHT22;8655;57.106;-2.088;2022-12-29T01:58:27;16.30;48.40
17080;DHT22;8655;57.106;-2.088;2022-12-29T02:00:54;16.30;49.00
17080;DHT22;8655;57.106;-2.088;2022-12-29T02:03:21;16.30;48.40
17080;DHT22;8655;57.106;-2.088;2022-12-29T02:05:59;16.30;48.40
17080;DHT22;8655;57.106;-2.088;2022-12-29T02:08:28;16.30;48.40
17080;DHT22;8655;57.106;-2.088;2022-12-29T02:10:56;16.30;48.40
17080;DHT22;8655;57.106;-2.088;2022-12-29T02:13:27;16.30;48.40
17080;DHT22;8655;57.106;-2.088;2022-12-29T02:32:52;16.30;48.40
17080;DHT22;8655;57.106;-2.088;2022-12-29T02:38:18;16.30;48.40
17080;DHT22;8655;57.106;-2.088;2022-12-29T02:41:06;16.20;48.40
17080;DHT22;8655;57.106;-2.088;2022-12-29T02:43:50;16.20;48.30
17080;DHT22;8655;57.106;-2.088;2022-12-29T02:49:51;16.20;48.40
17080;DHT22;8655;57.106;-2.088;2022-12-29T02:52:37;16.20;48.40
17080;DHT22;8655;57.106;-2.088;2022-12-29T02:55:05;16.20;48.40
17080;DHT22;8655;57.106;-2.088;2022-12-29T02:57:35;16.20;48.40
17080;DHT22;8655;57.106;-2.088;2022-12-29T03:00:03;16.20;48.40
17080;DHT22;8655;57.106;-2.088;2022-12-29T03:11:12;16.20;48.40
17080;DHT22;8655;57.106;-2.088;2022-12-29T03:14:02;16.20;48.40
17080;DHT22;8655;57.106;-2.088;2022-12-29T03:16:52;16.20;48.50
17080;DHT22;8655;57.106;-2.088;2022-12-29T03:19:26;16.20;48.50
17080;DHT22;8655;57.106;-2.088;2022-12-29T03:24:51;16.20;48.50
17080;DHT22;8655;57.106;-2.088;2022-12-29T03:27:21;16.20;48.40
17080;DHT22;8655;57.106;-2.088;2022-12-29T03:29:51;16.10;48.30
17080;DHT22;8655;57.106;-2.088;2022-12-29T03:32:25;16.20;48.40
17080;DHT22;8655;57.106;-2.088;2022-12-29T03:34:53;16.20;48.40
17080;DHT22;8655;57.106;-2.088;2022-12-29T03:37:23;16.10;48.40
17080;DHT22;8655;57.106;-2.088;2022-12-29T03:39:51;16.10;48.40
17080;DHT22;8655;57.106;-2.088;2022-12-29T03:42:19;16.10;49.00
17080;DHT22;8655;57.106;-2.088;2022-12-29T03:44:47;16.10;48.40
17080;DHT22;8655;57.106;-2.088;2022-12-29T03:47:14;16.10;48.30
17080;DHT22;8655;57.106;-2.088;2022-12-29T03:49:40;16.10;48.40
17080;DHT22;8655;57.106;-2.088;2022-12-29T03:52:06;16.10;48.40
17080;DHT22;8655;57.106;-2.088;2022-12-29T03:54:32;16.10;48.40
17080;DHT22;8655;57.106;-2.088;2022-12-29T03:56:58;16.10;48.40
17080;DHT22;8655;57.106;-2.088;2022-12-29T03:59:23;16.10;48.40
17080;DHT22;8655;57.106;-2.088;2022-12-29T04:01:49;16.10;48.40
17080;DHT22;8655;57.106;-2.088;2022-12-29T04:04:15;16.10;48.40
17080;DHT22;8655;57.106;-2.088;2022-12-29T04:06:41;16.10;48.40
17080;DHT22;8655;57.106;-2.088;2022-12-29T04:09:07;16.10;48.40
17080;DHT22;8655;57.106;-2.088;2022-12-29T04:11:32;16.10;48.40
17080;DHT22;8655;57.106;-2.088;2022-12-29T04:13:58;16.10;48.30
17080;DHT22;8655;57.106;-2.088;2022-12-29T04:16:24;16.10;48.40
17080;DHT22;8655;57.106;-2.088;2022-12-29T04:18:49;16.10;48.40
17080;DHT22;8655;57.106;-2.088;2022-12-29T04:21:15;16.10;48.40
17080;DHT22;8655;57.106;-2.088;2022-12-29T04:23:41;16.10;48.40
17080;DHT22;8655;57.106;-2.088;2022-12-29T04:26:07;16.10;48.40
17080;DHT22;8655;57.106;-2.088;2022-12-29T04:28:35;16.10;48.40
17080;DHT22;8655;57.106;-2.088;2022-12-29T04:31:02;16.00;48.30
17080;DHT22;8655;57.106;-2.088;2022-12-29T04:33:27;16.00;48.30
17080;DHT22;8655;57.106;-2.088;2022-12-29T04:35:54;16.10;48.40
17080;DHT22;8655;57.106;-2.088;2022-12-29T04:38:20;16.00;48.30
17080;DHT22;8655;57.106;-2.088;2022-12-29T04:40:47;16.00;48.30
17080;DHT22;8655;57.106;-2.088;2022-12-29T04:43:14;16.00;48.30
17080;DHT22;8655;57.106;-2.088;2022-12-29T04:45:44;16.00;48.30
17080;DHT22;8655;57.106;-2.088;2022-12-29T04:48:10;16.00;48.30
17080;DHT22;8655;57.106;-2.088;2022-12-29T04:50:36;16.00;48.30
17080;DHT22;8655;57.106;-2.088;2022-12-29T04:53:01;16.00;48.30
17080;DHT22;8655;57.106;-2.088;2022-12-29T04:55:27;16.00;48.30
17080;DHT22;8655;57.106;-2.088;2022-12-29T04:57:53;16.00;48.30
17080;DHT22;8655;57.106;-2.088;2022-12-29T05:00:19;16.00;48.30
17080;DHT22;8655;57.106;-2.088;2022-12-29T05:02:45;16.00;48.30
17080;DHT22;8655;57.106;-2.088;2022-12-29T05:05:10;16.00;48.30
17080;DHT22;8655;57.106;-2.088;2022-12-29T05:07:36;16.00;48.30
17080;DHT22;8655;57.106;-2.088;2022-12-29T05:10:02;16.00;48.30
17080;DHT22;8655;57.106;-2.088;2022-12-29T05:12:32;16.00;48.30
17080;DHT22;8655;57.106;-2.088;2022-12-29T05:14:58;16.00;48.30
17080;DHT22;8655;57.106;-2.088;2022-12-29T05:17:24;16.00;48.30
17080;DHT22;8655;57.106;-2.088;2022-12-29T05:19:50;16.00;48.30
17080;DHT22;8655;57.106;-2.088;2022-12-29T05:22:16;16.00;48.30
17080;DHT22;8655;57.106;-2.088;2022-12-29T05:24:41;16.00;48.30
17080;DHT22;8655;57.106;-2.088;2022-12-29T05:27:07;16.00;48.30
17080;DHT22;8655;57.106;-2.088;2022-12-29T05:29:33;16.00;48.30
17080;DHT22;8655;57.106;-2.088;2022-12-29T05:31:58;16.00;48.30
17080;DHT22;8655;57.106;-2.088;2022-12-29T05:34:24;15.90;48.20
17080;DHT22;8655;57.106;-2.088;2022-12-29T05:36:50;15.90;48.20
17080;DHT22;8655;57.106;-2.088;2022-12-29T05:39:16;15.90;48.20
17080;DHT22;8655;57.106;-2.088;2022-12-29T05:41:41;15.90;48.80
17080;DHT22;8655;57.106;-2.088;2022-12-29T05:44:07;15.90;48.20
17080;DHT22;8655;57.106;-2.088;2022-12-29T05:46:33;15.90;48.20
17080;DHT22;8655;57.106;-2.088;2022-12-29T05:48:58;15.90;48.20
17080;DHT22;8655;57.106;-2.088;2022-12-29T05:51:24;15.90;48.20
17080;DHT22;8655;57.106;-2.088;2022-12-29T05:53:50;15.90;48.20
17080;DHT22;8655;57.106;-2.088;2022-12-29T05:56:15;15.90;48.20
17080;DHT22;8655;57.106;-2.088;2022-12-29T05:58:41;15.90;48.20
17080;DHT22;8655;57.106;-2.088;2022-12-29T06:01:07;15.90;48.20
17080;DHT22;8655;57.106;-2.088;2022-12-29T06:03:33;15.90;48.20
17080;DHT22;8655;57.106;-2.088;2022-12-29T06:05:58;15.90;48.20
17080;DHT22;8655;57.106;-2.088;2022-12-29T06:08:24;15.90;48.20
17080;DHT22;8655;57.106;-2.088;2022-12-29T06:10:50;15.80;48.10
17080;DHT22;8655;57.106;-2.088;2022-12-29T06:13:16;15.80;48.10
17080;DHT22;8655;57.106;-2.088;2022-12-29T06:15:41;15.80;48.10
17080;DHT22;8655;57.106;-2.088;2022-12-29T06:18:07;15.80;48.10
17080;DHT22;8655;57.106;-2.088;2022-12-29T06:20:33;15.80;48.10
17080;DHT22;8655;57.106;-2.088;2022-12-29T06:22:58;15.80;48.10
17080;DHT22;8655;57.106;-2.088;2022-12-29T06:25:24;15.80;48.10
17080;DHT22;8655;57.106;-2.088;2022-12-29T06:27:50;15.80;48.10
17080;DHT22;8655;57.106;-2.088;2022-12-29T06:30:16;15.80;48.10
17080;DHT22;8655;57.106;-2.088;2022-12-29T06:32:42;15.80;48.20
17080;DHT22;8655;57.106;-2.088;2022-12-29T06:35:09;15.80;48.20
17080;DHT22;8655;57.106;-2.088;2022-12-29T06:37:34;15.80;48.20
17080;DHT22;8655;57.106;-2.088;2022-12-29T06:40:00;15.80;48.20
17080;DHT22;8655;57.106;-2.088;2022-12-29T06:42:26;15.80;48.20
17080;DHT22;8655;57.106;-2.088;2022-12-29T06:44:52;15.80;48.20
17080;DHT22;8655;57.106;-2.088;2022-12-29T06:47:17;15.80;48.20
17080;DHT22;8655;57.106;-2.088;2022-12-29T06:49:44;15.70;48.10
17080;DHT22;8655;57.106;-2.088;2022-12-29T06:52:09;15.70;48.10
17080;DHT22;8655;57.106;-2.088;2022-12-29T06:54:35;15.70;48.10
17080;DHT22;8655;57.106;-2.088;2022-12-29T06:57:01;15.70;48.10
17080;DHT22;8655;57.106;-2.088;2022-12-29T06:59:26;15.70;48.10
17080;DHT22;8655;57.106;-2.088;2022-12-29T07:01:52;15.80;48.30
17080;DHT22;8655;57.106;-2.088;2022-12-29T07:04:18;15.80;48.30
17080;DHT22;8655;57.106;-2.088;2022-12-29T07:06:44;15.80;48.30
17080;DHT22;8655;57.106;-2.088;2022-12-29T07:09:09;15.90;48.30
17080;DHT22;8655;57.106;-2.088;2022-12-29T07:11:36;15.90;48.40
17080;DHT22;8655;57.106;-2.088;2022-12-29T07:14:02;16.00;48.40
17080;DHT22;8655;57.106;-2.088;2022-12-29T07:16:28;16.00;48.40
17080;DHT22;8655;57.106;-2.088;2022-12-29T07:18:56;16.00;48.40
17080;DHT22;8655;57.106;-2.088;2022-12-29T07:21:22;16.10;48.50
17080;DHT22;8655;57.106;-2.088;2022-12-29T07:23:47;16.10;48.40
17080;DHT22;8655;57.106;-2.088;2022-12-29T07:26:14;16.20;48.50
17080;DHT22;8655;57.106;-2.088;2022-12-29T07:28:43;16.30;48.50
17080;DHT22;8655;57.106;-2.088;2022-12-29T07:31:19;16.30;48.50
17080;DHT22;8655;57.106;-2.088;2022-12-29T07:33:45;16.40;48.50
17080;DHT22;8655;57.106;-2.088;2022-12-29T07:36:13;16.40;48.50
17080;DHT22;8655;57.106;-2.088;2022-12-29T07:38:39;16.50;48.60
17080;DHT22;8655;57.106;-2.088;2022-12-29T07:41:05;16.50;48.60
17080;DHT22;8655;57.106;-2.088;2022-12-29T07:43:30;16.60;48.70
17080;DHT22;8655;57.106;-2.088;2022-12-29T07:45:56;16.60;48.70
17080;DHT22;8655;57.106;-2.088;2022-12-29T07:48:21;16.70;48.70
17080;DHT22;8655;57.106;-2.088;2022-12-29T07:50:47;16.70;48.70
17080;DHT22;8655;57.106;-2.088;2022-12-29T07:53:13;16.80;48.70
17080;DHT22;8655;57.106;-2.088;2022-12-29T07:55:40;16.80;48.70
17080;DHT22;8655;57.106;-2.088;2022-12-29T07:58:05;16.90;48.80
17080;DHT22;8655;57.106;-2.088;2022-12-29T08:00:31;17.00;48.90
17080;DHT22;8655;57.106;-2.088;2022-12-29T08:02:56;17.00;48.90
17080;DHT22;8655;57.106;-2.088;2022-12-29T08:05:22;17.10;48.90
17080;DHT22;8655;57.106;-2.088;2022-12-29T08:07:48;17.10;48.90
17080;DHT22;8655;57.106;-2.088;2022-12-29T08:10:15;17.20;49.00
17080;DHT22;8655;57.106;-2.088;2022-12-29T08:12:41;17.20;49.00
17080;DHT22;8655;57.106;-2.088;2022-12-29T08:15:09;17.30;49.00
17080;DHT22;8655;57.106;-2.088;2022-12-29T08:17:35;17.30;49.00
17080;DHT22;8655;57.106;-2.088;2022-12-29T08:20:01;17.40;49.10
17080;DHT22;8655;57.106;-2.088;2022-12-29T08:22:26;17.40;49.20
17080;DHT22;8655;57.106;-2.088;2022-12-29T08:24:52;17.40;49.10
17080;DHT22;8655;57.106;-2.088;2022-12-29T08:27:18;17.50;49.20
17080;DHT22;8655;57.106;-2.088;2022-12-29T08:29:44;17.50;49.20
17080;DHT22;8655;57.106;-2.088;2022-12-29T08:32:10;17.60;49.20
17080;DHT22;8655;57.106;-2.088;2022-12-29T08:34:36;17.60;49.30
17080;DHT22;8655;57.106;-2.088;2022-12-29T08:37:01;17.70;49.30
17080;DHT22;8655;57.106;-2.088;2022-12-29T08:39:27;17.70;49.30
17080;DHT22;8655;57.106;-2.088;2022-12-29T08:41:53;17.80;49.40
17080;DHT22;8655;57.106;-2.088;2022-12-29T08:44:19;17.80;49.30
17080;DHT22;8655;57.106;-2.088;2022-12-29T08:46:44;17.80;49.30
17080;DHT22;8655;57.106;-2.088;2022-12-29T08:49:10;17.90;49.40
17080;DHT22;8655;57.106;-2.088;2022-12-29T08:51:36;18.00;49.50
17080;DHT22;8655;57.106;-2.088;2022-12-29T08:54:02;18.00;49.50
17080;DHT22;8655;57.106;-2.088;2022-12-29T08:56:28;18.00;49.40
17080;DHT22;8655;57.106;-2.088;2022-12-29T08:58:54;18.00;50.00
17080;DHT22;8655;57.106;-2.088;2022-12-29T09:01:20;18.10;49.50
17080;DHT22;8655;57.106;-2.088;2022-12-29T09:03:46;18.10;49.50
17080;DHT22;8655;57.106;-2.088;2022-12-29T09:06:13;18.20;49.50
17080;DHT22;8655;57.106;-2.088;2022-12-29T09:08:39;18.20;49.50
17080;DHT22;8655;57.106;-2.088;2022-12-29T09:11:18;18.20;49.50
17080;DHT22;8655;57.106;-2.088;2022-12-29T09:13:44;18.20;49.40
17080;DHT22;8655;57.106;-2.088;2022-12-29T09:16:10;18.30;49.50
17080;DHT22;8655;57.106;-2.088;2022-12-29T09:18:36;18.30;49.50
17080;DHT22;8655;57.106;-2.088;2022-12-29T09:21:04;18.30;49.60
17080;DHT22;8655;57.106;-2.088;2022-12-29T09:23:31;18.30;49.50
17080;DHT22;8655;57.106;-2.088;2022-12-29T09:25:56;18.30;49.50
17080;DHT22;8655;57.106;-2.088;2022-12-29T09:28:23;18.30;49.50
17080;DHT22;8655;57.106;-2.088;2022-12-29T09:30:49;18.30;49.60
17080;DHT22;8655;57.106;-2.088;2022-12-29T09:33:15;18.30;49.50
17080;DHT22;8655;57.106;-2.088;2022-12-29T09:35:43;18.30;49.50
17080;DHT22;8655;57.106;-2.088;2022-12-29T09:38:09;18.30;49.50
17080;DHT22;8655;57.106;-2.088;2022-12-29T09:40:35;18.30;49.50
17080;DHT22;8655;57.106;-2.088;2022-12-29T09:46:12;18.20;49.40
17080;DHT22;8655;57.106;-2.088;2022-12-29T09:48:44;18.20;49.40
17080;DHT22;8655;57.106;-2.088;2022-12-29T09:51:14;18.20;49.40
17080;DHT22;8655;57.106;-2.088;2022-12-29T09:53:43;18.20;49.50
17080;DHT22;8655;57.106;-2.088;2022-12-29T09:56:17;18.20;49.50
17080;DHT22;8655;57.106;-2.088;2022-12-29T09:59:02;18.20;49.50
17080;DHT22;8655;57.106;-2.088;2022-12-29T10:01:39;18.10;49.40
17080;DHT22;8655;57.106;-2.088;2022-12-29T10:04:07;18.10;49.40
17080;DHT22;8655;57.106;-2.088;2022-12-29T10:06:51;18.10;49.40
17080;DHT22;8655;57.106;-2.088;2022-12-29T10:09:40;18.10;49.40
17080;DHT22;8655;57.106;-2.088;2022-12-29T10:18:26;18.00;49.40
17080;DHT22;8655;57.106;-2.088;2022-12-29T10:21:14;18.00;49.40
17080;DHT22;8655;57.106;-2.088;2022-12-29T10:23:51;18.00;49.40
17080;DHT22;8655;57.106;-2.088;2022-12-29T10:26:23;17.90;49.40
17080;DHT22;8655;57.106;-2.088;2022-12-29T10:28:58;17.90;49.40
17080;DHT22;8655;57.106;-2.088;2022-12-29T10:31:38;17.90;49.40
17080;DHT22;8655;57.106;-2.088;2022-12-29T10:34:24;17.90;49.40
17080;DHT22;8655;57.106;-2.088;2022-12-29T10:42:13;17.80;49.30
17080;DHT22;8655;57.106;-2.088;2022-12-29T10:44:39;17.80;49.30
17080;DHT22;8655;57.106;-2.088;2022-12-29T10:47:14;17.80;49.30
17080;DHT22;8655;57.106;-2.088;2022-12-29T10:49:41;17.80;49.30
17080;DHT22;8655;57.106;-2.088;2022-12-29T10:52:10;17.80;49.40
17080;DHT22;8655;57.106;-2.088;2022-12-29T10:59:54;17.70;49.30
17080;DHT22;8655;57.106;-2.088;2022-12-29T11:02:43;17.70;49.30
17080;DHT22;8655;57.106;-2.088;2022-12-29T11:05:22;17.60;49.20
17080;DHT22;8655;57.106;-2.088;2022-12-29T11:07:50;17.60;49.20
17080;DHT22;8655;57.106;-2.088;2022-12-29T11:10:40;17.60;49.20
17080;DHT22;8655;57.106;-2.088;2022-12-29T11:13:25;17.60;49.20
17080;DHT22;8655;57.106;-2.088;2022-12-29T11:15:51;17.60;49.20
17080;DHT22;8655;57.106;-2.088;2022-12-29T11:18:25;17.60;49.20
17080;DHT22;8655;57.106;-2.088;2022-12-29T11:21:02;17.60;49.20
17080;DHT22;8655;57.106;-2.088;2022-12-29T11:28:40;17.50;49.10
17080;DHT22;8655;57.106;-2.088;2022-12-29T11:31:07;17.50;49.20
17080;DHT22;8655;57.106;-2.088;2022-12-29T11:33:35;17.50;49.70
17080;DHT22;8655;57.106;-2.088;2022-12-29T11:36:11;17.50;49.20
17080;DHT22;8655;57.106;-2.088;2022-12-29T11:38:40;17.50;49.10
17080;DHT22;8655;57.106;-2.088;2022-12-29T11:41:11;17.50;49.10
17080;DHT22;8655;57.106;-2.088;2022-12-29T11:43:40;17.40;49.00
17080;DHT22;8655;57.106;-2.088;2022-12-29T11:46:20;17.40;49.00
17080;DHT22;8655;57.106;-2.088;2022-12-29T11:48:48;17.40;49.00
17080;DHT22;8655;57.106;-2.088;2022-12-29T11:51:25;17.40;49.00
17080;DHT22;8655;57.106;-2.088;2022-12-29T11:53:55;17.40;49.00
17080;DHT22;8655;57.106;-2.088;2022-12-29T11:56:37;17.40;49.00
17080;DHT22;8655;57.106;-2.088;2022-12-29T12:02:03;17.40;49.00
17080;DHT22;8655;57.106;-2.088;2022-12-29T12:04:36;17.40;49.10
17080;DHT22;8655;57.106;-2.088;2022-12-29T12:09:37;17.40;49.00
17080;DHT22;8655;57.106;-2.088;2022-12-29T12:12:05;17.30;49.00
17080;DHT22;8655;57.106;-2.088;2022-12-29T12:14:43;17.30;49.00
17080;DHT22;8655;57.106;-2.088;2022-12-29T12:19:52;17.30;49.00
17080;DHT22;8655;57.106;-2.088;2022-12-29T12:22:29;17.30;49.00
17080;DHT22;8655;57.106;-2.088;2022-12-29T12:25:23;17.30;49.00
17080;DHT22;8655;57.106;-2.088;2022-12-29T12:27:57;17.30;48.90
17080;DHT22;8655;57.106;-2.088;2022-12-29T12:30:26;17.30;48.90
17080;DHT22;8655;57.106;-2.088;2022-12-29T12:44:32;17.20;48.80
17080;DHT22;8655;57.106;-2.088;2022-12-29T12:52:29;17.20;48.90
17080;DHT22;8655;57.106;-2.088;2022-12-29T13:00:18;17.20;48.80
17080;DHT22;8655;57.106;-2.088;2022-12-29T13:03:13;17.20;48.80
17080;DHT22;8655;57.106;-2.088;2022-12-29T13:08:48;17.10;48.80
17080;DHT22;8655;57.106;-2.088;2022-12-29T13:14:15;17.10;48.80
17080;DHT22;8655;57.106;-2.088;2022-12-29T13:33:53;17.00;48.70
17080;DHT22;8655;57.106;-2.088;2022-12-29T13:36:42;17.00;48.70
17080;DHT22;8655;57.106;-2.088;2022-12-29T13:39:19;17.00;48.70
17080;DHT22;8655;57.106;-2.088;2022-12-29T13:41:53;17.00;48.70
17080;DHT22;8655;57.106;-2.088;2022-12-29T13:44:33;17.00;48.70
17080;DHT22;8655;57.106;-2.088;2022-12-29T13:47:05;17.00;48.70
17080;DHT22;8655;57.106;-2.088;2022-12-29T13:49:34;17.00;48.70
17080;DHT22;8655;57.106;-2.088;2022-12-29T13:52:18;17.00;48.70
17080;DHT22;8655;57.106;-2.088;2022-12-29T13:57:47;17.00;48.70
17080;DHT22;8655;57.106;-2.088;2022-12-29T14:00:19;16.90;48.60
17080;DHT22;8655;57.106;-2.088;2022-12-29T14:10:50;16.90;48.60
17080;DHT22;8655;57.106;-2.088;2022-12-29T14:13:18;16.90;48.60
17080;DHT22;8655;57.106;-2.088;2022-12-29T14:15:50;16.90;48.60
17080;DHT22;8655;57.106;-2.088;2022-12-29T14:18:23;16.90;48.60
17080;DHT22;8655;57.106;-2.088;2022-12-29T14:20:58;16.90;48.60
17080;DHT22;8655;57.106;-2.088;2022-12-29T14:28:57;16.90;48.60
17080;DHT22;8655;57.106;-2.088;2022-12-29T14:36:42;16.80;48.50
17080;DHT22;8655;57.106;-2.088;2022-12-29T14:39:42;16.80;48.50
17080;DHT22;8655;57.106;-2.088;2022-12-29T14:44:42;16.80;48.50
17080;DHT22;8655;57.106;-2.088;2022-12-29T14:47:27;16.80;48.50
17080;DHT22;8655;57.106;-2.088;2022-12-29T14:50:04;16.80;48.50
17080;DHT22;8655;57.106;-2.088;2022-12-29T14:52:31;16.80;48.50
17080;DHT22;8655;57.106;-2.088;2022-12-29T14:57:37;16.80;48.50
17080;DHT22;8655;57.106;-2.088;2022-12-29T15:00:21;16.80;48.50
17080;DHT22;8655;57.106;-2.088;2022-12-29T15:07:58;16.80;48.50
17080;DHT22;8655;57.106;-2.088;2022-12-29T15:10:27;16.70;48.40
17080;DHT22;8655;57.106;-2.088;2022-12-29T15:13:03;16.70;48.40
17080;DHT22;8655;57.106;-2.088;2022-12-29T15:15:37;16.70;48.40
17080;DHT22;8655;57.106;-2.088;2022-12-29T15:18:24;16.70;48.40
17080;DHT22;8655;57.106;-2.088;2022-12-29T15:20:55;16.70;48.40
17080;DHT22;8655;57.106;-2.088;2022-12-29T15:23:30;16.70;48.40
17080;DHT22;8655;57.106;-2.088;2022-12-29T15:26:02;16.70;48.40
17080;DHT22;8655;57.106;-2.088;2022-12-29T15:28:44;16.70;48.50
17080;DHT22;8655;57.106;-2.088;2022-12-29T15:31:18;16.70;48.40
17080;DHT22;8655;57.106;-2.088;2022-12-29T15:33:47;16.70;48.40
17080;DHT22;8655;57.106;-2.088;2022-12-29T15:36:25;16.70;48.40
17080;DHT22;8655;57.106;-2.088;2022-12-29T15:38:51;16.70;48.40
17080;DHT22;8655;57.106;-2.088;2022-12-29T15:44:38;16.70;48.40
17080;DHT22;8655;57.106;-2.088;2022-12-29T15:47:14;16.70;48.40
17080;DHT22;8655;57.106;-2.088;2022-12-29T15:49:43;16.60;48.30
17080;DHT22;8655;57.106;-2.088;2022-12-29T15:52:09;16.60;48.30
17080;DHT22;8655;57.106;-2.088;2022-12-29T15:54:36;16.60;48.30
17080;DHT22;8655;57.106;-2.088;2022-12-29T15:57:03;16.60;48.30
17080;DHT22;8655;57.106;-2.088;2022-12-29T15:59:33;16.60;48.30
17080;DHT22;8655;57.106;-2.088;2022-12-29T16:02:00;16.60;48.30
17080;DHT22;8655;57.106;-2.088;2022-12-29T16:04:29;16.60;48.30
17080;DHT22;8655;57.106;-2.088;2022-12-29T16:06:59;16.60;48.30
17080;DHT22;8655;57.106;-2.088;2022-12-29T16:09:33;16.60;48.30
17080;DHT22;8655;57.106;-2.088;2022-12-29T16:12:03;16.60;48.30
17080;DHT22;8655;57.106;-2.088;2022-12-29T16:15:00;16.60;48.30
17080;DHT22;8655;57.106;-2.088;2022-12-29T16:17:29;16.60;48.30
17080;DHT22;8655;57.106;-2.088;2022-12-29T16:20:03;16.60;48.30
17080;DHT22;8655;57.106;-2.088;2022-12-29T16:22:35;16.60;48.30
17080;DHT22;8655;57.106;-2.088;2022-12-29T16:25:04;16.60;48.30
17080;DHT22;8655;57.106;-2.088;2022-12-29T16:27:36;16.60;48.30
17080;DHT22;8655;57.106;-2.088;2022-12-29T16:30:12;16.60;48.30
17080;DHT22;8655;57.106;-2.088;2022-12-29T16:32:46;16.50;48.20
17080;DHT22;8655;57.106;-2.088;2022-12-29T16:35:21;16.60;48.30
17080;DHT22;8655;57.106;-2.088;2022-12-29T16:37:49;16.50;48.20
17080;DHT22;8655;57.106;-2.088;2022-12-29T16:40:31;16.50;48.20
17080;DHT22;8655;57.106;-2.088;2022-12-29T16:43:01;16.50;48.20
17080;DHT22;8655;57.106;-2.088;2022-12-29T16:50:42;16.50;48.20
17080;DHT22;8655;57.106;-2.088;2022-12-29T16:53:31;16.50;48.20
17080;DHT22;8655;57.106;-2.088;2022-12-29T16:56:23;16.50;48.20
17080;DHT22;8655;57.106;-2.088;2022-12-29T16:59:05;16.50;48.20
17080;DHT22;8655;57.106;-2.088;2022-12-29T17:01:31;16.50;48.20
17080;DHT22;8655;57.106;-2.088;2022-12-29T17:04:11;16.50;48.20
17080;DHT22;8655;57.106;-2.088;2022-12-29T17:06:37;16.50;48.20
17080;DHT22;8655;57.106;-2.088;2022-12-29T17:09:19;16.50;48.20
17080;DHT22;8655;57.106;-2.088;2022-12-29T17:11:50;16.40;48.10
17080;DHT22;8655;57.106;-2.088;2022-12-29T17:14:44;16.50;48.20
17080;DHT22;8655;57.106;-2.088;2022-12-29T17:17:19;16.40;48.10
17080;DHT22;8655;57.106;-2.088;2022-12-29T17:19:51;16.40;48.10
17080;DHT22;8655;57.106;-2.088;2022-12-29T17:22:21;16.40;48.10
17080;DHT22;8655;57.106;-2.088;2022-12-29T17:24:49;16.40;48.10
17080;DHT22;8655;57.106;-2.088;2022-12-29T17:27:22;16.40;48.10
17080;DHT22;8655;57.106;-2.088;2022-12-29T17:29:49;16.40;48.10
17080;DHT22;8655;57.106;-2.088;2022-12-29T17:32:15;16.40;48.10
17080;DHT22;8655;57.106;-2.088;2022-12-29T17:34:41;16.40;48.10
17080;DHT22;8655;57.106;-2.088;2022-12-29T17:37:27;16.40;48.10
17080;DHT22;8655;57.106;-2.088;2022-12-29T17:39:53;16.40;48.10
17080;DHT22;8655;57.106;-2.088;2022-12-29T17:42:19;16.40;48.70
17080;DHT22;8655;57.106;-2.088;2022-12-29T17:44:45;16.40;48.10
17080;DHT22;8655;57.106;-2.088;2022-12-29T17:47:11;16.40;48.10
17080;DHT22;8655;57.106;-2.088;2022-12-29T17:49:36;16.30;48.00
17080;DHT22;8655;57.106;-2.088;2022-12-29T17:52:03;16.30;48.00
17080;DHT22;8655;57.106;-2.088;2022-12-29T17:54:30;16.30;48.00
17080;DHT22;8655;57.106;-2.088;2022-12-29T17:56:56;16.30;47.90
17080;DHT22;8655;57.106;-2.088;2022-12-29T17:59:22;16.30;48.00
17080;DHT22;8655;57.106;-2.088;2022-12-29T18:01:48;16.30;47.90
17080;DHT22;8655;57.106;-2.088;2022-12-29T18:04:19;16.30;47.90
17080;DHT22;8655;57.106;-2.088;2022-12-29T18:06:45;16.30;47.90
17080;DHT22;8655;57.106;-2.088;2022-12-29T18:09:12;16.30;47.90
17080;DHT22;8655;57.106;-2.088;2022-12-29T18:11:40;16.30;47.90
17080;DHT22;8655;57.106;-2.088;2022-12-29T18:14:14;16.30;47.90
17080;DHT22;8655;57.106;-2.088;2022-12-29T18:16:41;16.30;47.90
17080;DHT22;8655;57.106;-2.088;2022-12-29T18:19:07;16.30;47.90
17080;DHT22;8655;57.106;-2.088;2022-12-29T18:21:34;16.30;47.90
17080;DHT22;8655;57.106;-2.088;2022-12-29T18:24:00;16.20;47.80
17080;DHT22;8655;57.106;-2.088;2022-12-29T18:26:27;16.30;47.90